createdAt,value
2023-09-26T00:00:13.375Z,70.70
2023-09-26T00:01:13.698Z,70.50
2023-09-26T00:02:13.772Z,70.40
2023-09-26T00:03:13.786Z,70.60
2023-09-26T00:04:13.821Z,70.50
2023-09-26T00:05:13.831Z,70.70
2023-09-26T00:06:13.580Z,70.30
2023-09-26T00:07:13.615Z,70.10
2023-09-26T00:08:13.510Z,70.40
2023-09-26T00:09:13.514Z,70.10
2023-09-26T00:10:13.402Z,70.40
2023-09-26T00:11:13.131Z,70.30
2023-09-26T00:12:12.984Z,70.30
2023-09-26T00:13:13.019Z,70.20
2023-09-26T00:14:13.040Z,70.20
2023-09-26T00:15:13.256Z,69.90
2023-09-26T00:16:13.735Z,70.10
2023-09-26T00:17:13.866Z,69.80
2023-09-26T00:18:12.904Z,69.70
2023-09-26T00:19:13.062Z,69.40
2023-09-26T00:20:12.903Z,69.30
2023-09-26T00:21:12.737Z,69.40
2023-09-26T00:22:13.940Z,69.30
2023-09-26T00:23:13.130Z,69.60
2023-09-26T00:24:13.441Z,69.80
2023-09-26T00:25:13.333Z,70.00
2023-09-26T00:26:13.263Z,70.30
2023-09-26T00:27:13.375Z,70.40
2023-09-26T00:28:13.580Z,70.50
2023-09-26T00:29:13.633Z,71.00
2023-09-26T00:30:49.046Z,71.30
2023-09-26T00:31:01.096Z,71.40
2023-09-26T00:31:13.185Z,71.30
2023-09-26T00:32:13.195Z,71.30
2023-09-26T00:33:13.426Z,71.20
2023-09-26T00:34:13.418Z,71.40
2023-09-26T00:35:13.565Z,71.80
2023-09-26T00:36:13.710Z,71.70
2023-09-26T00:37:13.805Z,71.60
2023-09-26T00:38:14.020Z,71.40
2023-09-26T00:39:13.000Z,71.80
2023-09-26T00:40:13.096Z,71.80
2023-09-26T00:41:12.859Z,72.20
2023-09-26T00:42:13.820Z,72.50
2023-09-26T00:43:13.802Z,72.80
2023-09-26T00:44:13.644Z,73.00
2023-09-26T00:45:13.658Z,73.30
2023-09-26T00:46:13.726Z,73.50
2023-09-26T00:47:14.191Z,73.60
2023-09-26T00:48:13.362Z,73.90
2023-09-26T00:49:13.532Z,73.90
2023-09-26T00:50:13.840Z,73.70
2023-09-26T00:51:12.832Z,74.00
2023-09-26T00:52:13.810Z,74.30
2023-09-26T00:53:13.899Z,74.60
2023-09-26T00:54:12.817Z,74.60
2023-09-26T00:55:13.810Z,75.00
2023-09-26T00:56:13.788Z,74.80
2023-09-26T00:57:13.811Z,74.80
2023-09-26T00:58:13.749Z,75.30
2023-09-26T00:59:13.642Z,75.70
2023-09-26T01:00:13.486Z,75.70
2023-09-26T01:01:13.421Z,75.70
2023-09-26T01:02:13.243Z,75.70
2023-09-26T01:03:13.280Z,75.70
2023-09-26T01:04:13.215Z,75.70
2023-09-26T01:05:13.394Z,75.80
2023-09-26T01:06:13.524Z,75.80
2023-09-26T01:07:13.271Z,75.90
2023-09-26T01:08:13.510Z,76.00
2023-09-26T01:09:13.430Z,76.00
2023-09-26T01:10:13.460Z,76.00
2023-09-26T01:11:13.523Z,76.50
2023-09-26T01:12:13.393Z,76.90
2023-09-26T01:13:13.787Z,76.80
2023-09-26T01:14:13.758Z,77.00
2023-09-26T01:15:13.714Z,77.20
2023-09-26T01:16:13.898Z,76.90
2023-09-26T01:17:12.885Z,76.70
2023-09-26T01:18:12.973Z,76.60
2023-09-26T01:19:12.957Z,76.60
2023-09-26T01:20:13.092Z,76.50
2023-09-26T01:21:13.079Z,76.60
2023-09-26T01:22:13.368Z,76.90
2023-09-26T01:23:14.341Z,76.80
2023-09-26T01:24:13.286Z,76.70
2023-09-26T01:25:13.112Z,77.00
2023-09-26T01:26:13.152Z,77.20
2023-09-26T01:27:13.307Z,76.90
2023-09-26T01:28:13.245Z,77.00
2023-09-26T01:29:13.279Z,77.10
2023-09-26T01:30:13.367Z,77.20
2023-09-26T01:31:13.635Z,77.50
2023-09-26T01:32:14.208Z,77.60
2023-09-26T01:33:13.049Z,77.60
2023-09-26T01:34:12.912Z,77.70
2023-09-26T01:35:12.928Z,77.50
2023-09-26T01:36:12.886Z,77.50
2023-09-26T01:37:12.749Z,77.30
2023-09-26T01:38:13.696Z,77.50
2023-09-26T01:39:13.841Z,77.40
2023-09-26T01:40:13.850Z,77.50
2023-09-26T01:41:12.958Z,77.50
2023-09-26T01:42:12.797Z,77.80
2023-09-26T01:43:15.814Z,77.80
2023-09-26T01:44:12.939Z,77.90
2023-09-26T01:45:12.926Z,78.30
2023-09-26T01:46:13.204Z,78.40
2023-09-26T01:47:13.143Z,78.50
2023-09-26T01:48:13.232Z,78.40
2023-09-26T01:49:13.364Z,78.50
2023-09-26T01:50:13.224Z,78.60
2023-09-26T01:51:13.450Z,78.80
2023-09-26T01:52:13.495Z,79.20
2023-09-26T01:53:13.804Z,79.20
2023-09-26T01:54:13.699Z,79.50
2023-09-26T01:55:13.484Z,79.60
2023-09-26T01:56:13.569Z,79.50
2023-09-26T01:57:13.470Z,79.70
2023-09-26T01:58:13.426Z,79.80
2023-09-26T01:59:13.193Z,79.90
2023-09-26T02:00:13.085Z,80.00
2023-09-26T02:01:13.165Z,80.00
2023-09-26T02:02:13.279Z,80.10
2023-09-26T02:03:13.276Z,80.30
2023-09-26T02:04:13.324Z,80.60
2023-09-26T02:05:13.234Z,80.50
2023-09-26T02:06:13.172Z,80.30
2023-09-26T02:07:13.217Z,80.00
2023-09-26T02:08:13.322Z,80.20
2023-09-26T02:09:13.206Z,80.00
2023-09-26T02:10:13.384Z,80.00
2023-09-26T02:11:13.349Z,80.20
2023-09-26T02:12:13.496Z,80.10
2023-09-26T02:13:13.793Z,80.40
2023-09-26T02:14:14.393Z,80.50
2023-09-26T02:15:13.613Z,80.70
2023-09-26T02:16:13.617Z,81.10
2023-09-26T02:17:13.728Z,81.20
2023-09-26T02:18:13.752Z,81.30
2023-09-26T02:19:14.823Z,81.20
2023-09-26T02:20:12.889Z,81.00
2023-09-26T02:21:12.689Z,80.80
2023-09-26T02:22:13.660Z,80.80
2023-09-26T02:23:13.573Z,80.60
2023-09-26T02:24:13.592Z,80.30
2023-09-26T02:25:13.910Z,80.30
2023-09-26T02:26:12.839Z,80.30
2023-09-26T02:27:13.868Z,80.30
2023-09-26T02:28:13.878Z,80.40
2023-09-26T02:29:13.024Z,80.30
2023-09-26T02:30:13.083Z,80.40
2023-09-26T02:31:13.353Z,80.50
2023-09-26T02:32:13.581Z,80.50
2023-09-26T02:33:13.631Z,80.60
2023-09-26T02:34:13.670Z,80.70
2023-09-26T02:35:13.668Z,80.60
2023-09-26T02:36:13.580Z,80.60
2023-09-26T02:37:13.381Z,80.30
2023-09-26T02:38:13.511Z,80.10
2023-09-26T02:39:13.392Z,79.80
2023-09-26T02:40:13.389Z,79.30
2023-09-26T02:41:13.483Z,79.10
2023-09-26T02:42:13.431Z,78.70
2023-09-26T02:43:13.173Z,78.50
2023-09-26T02:44:13.071Z,78.70
2023-09-26T02:45:13.081Z,78.70
2023-09-26T02:46:13.428Z,78.70
2023-09-26T02:47:13.228Z,78.80
2023-09-26T02:48:13.256Z,78.90
2023-09-26T02:49:13.405Z,78.80
2023-09-26T02:50:13.534Z,79.00
2023-09-26T02:51:18.740Z,79.00
2023-09-26T02:52:13.826Z,78.70
2023-09-26T02:53:13.710Z,78.60
2023-09-26T02:54:13.538Z,78.50
2023-09-26T02:55:13.686Z,78.40
2023-09-26T02:56:13.903Z,78.70
2023-09-26T02:57:12.829Z,79.00
2023-09-26T02:58:13.669Z,79.20
2023-09-26T02:59:13.901Z,79.40
2023-09-26T03:00:12.926Z,79.70
2023-09-26T03:01:13.008Z,79.80
2023-09-26T03:02:13.174Z,79.80
2023-09-26T03:03:13.540Z,79.50
2023-09-26T03:04:13.635Z,79.70
2023-09-26T03:05:13.602Z,79.80
2023-09-26T03:06:13.689Z,79.70
2023-09-26T03:07:13.674Z,79.80
2023-09-26T03:08:13.774Z,79.70
2023-09-26T03:09:13.245Z,79.50
2023-09-26T03:10:13.206Z,79.70
2023-09-26T03:11:13.217Z,79.90
2023-09-26T03:12:13.225Z,79.80
2023-09-26T03:13:13.336Z,80.00
2023-09-26T03:14:13.355Z,80.30
2023-09-26T03:15:13.250Z,80.60
2023-09-26T03:16:13.533Z,80.70
2023-09-26T03:17:13.809Z,80.60
2023-09-26T03:18:13.735Z,80.80
2023-09-26T03:19:14.154Z,81.00
2023-09-26T03:20:12.965Z,81.20
2023-09-26T03:21:12.785Z,81.20
2023-09-26T03:22:14.193Z,81.20
2023-09-26T03:23:13.148Z,81.10
2023-09-26T03:24:13.183Z,81.60
2023-09-26T03:25:13.160Z,81.80
2023-09-26T03:26:13.054Z,81.80
2023-09-26T03:27:13.094Z,81.90
2023-09-26T03:28:18.233Z,81.90
2023-09-26T03:29:13.322Z,82.10
2023-09-26T03:30:13.137Z,82.20
2023-09-26T03:31:13.072Z,82.40
2023-09-26T03:32:12.940Z,82.40
2023-09-26T03:33:12.788Z,82.50
2023-09-26T03:34:13.792Z,82.40
2023-09-26T03:35:13.875Z,82.40
2023-09-26T03:36:13.747Z,82.60
2023-09-26T03:37:13.732Z,82.60
2023-09-26T03:38:13.651Z,82.40
2023-09-26T03:39:13.893Z,82.30
2023-09-26T03:40:13.825Z,82.10
2023-09-26T03:41:13.736Z,82.10
2023-09-26T03:42:13.634Z,82.00
2023-09-26T03:43:13.512Z,81.90
2023-09-26T03:44:13.577Z,81.80
2023-09-26T03:45:13.632Z,81.50
2023-09-26T03:46:13.752Z,81.40
2023-09-26T03:47:13.595Z,81.40
2023-09-26T03:48:13.428Z,81.10
2023-09-26T03:49:13.711Z,81.20
2023-09-26T03:50:13.748Z,81.20
2023-09-26T03:51:13.807Z,81.10
2023-09-26T03:52:13.605Z,81.00
2023-09-26T03:53:13.418Z,81.10
2023-09-26T03:54:13.329Z,81.10
2023-09-26T03:55:13.429Z,81.00
2023-09-26T03:56:13.753Z,81.40
2023-09-26T03:57:13.577Z,81.60
2023-09-26T03:58:13.470Z,82.00
2023-09-26T03:59:13.306Z,82.00
2023-09-26T04:00:13.369Z,81.90
2023-09-26T04:01:13.492Z,82.00
2023-09-26T04:02:13.439Z,81.80
2023-09-26T04:03:13.478Z,81.90
2023-09-26T04:04:13.377Z,82.10
2023-09-26T04:05:13.347Z,82.10
2023-09-26T04:06:13.249Z,82.00
2023-09-26T04:07:13.196Z,81.90
2023-09-26T04:08:13.251Z,81.70
2023-09-26T04:09:13.139Z,81.70
2023-09-26T04:10:13.068Z,81.60
2023-09-26T04:11:13.057Z,81.70
2023-09-26T04:12:13.267Z,81.60
2023-09-26T04:13:13.138Z,81.80
2023-09-26T04:14:12.997Z,81.70
2023-09-26T04:15:12.847Z,81.60
2023-09-26T04:16:13.745Z,81.90
2023-09-26T04:17:13.999Z,81.50
2023-09-26T04:18:12.891Z,81.40
2023-09-26T04:19:12.993Z,81.30
2023-09-26T04:20:23.237Z,81.10
2023-09-26T04:21:13.289Z,81.00
2023-09-26T04:22:13.327Z,81.00
2023-09-26T04:23:13.403Z,81.00
2023-09-26T04:24:13.389Z,80.90
2023-09-26T04:25:13.475Z,80.80
2023-09-26T04:26:13.640Z,80.60
2023-09-26T04:27:13.994Z,80.60
2023-09-26T04:28:12.992Z,80.60
2023-09-26T04:29:12.886Z,80.50
2023-09-26T04:30:12.685Z,80.40
2023-09-26T04:31:13.901Z,80.30
2023-09-26T04:32:13.424Z,80.20
2023-09-26T04:33:13.443Z,80.10
2023-09-26T04:34:13.511Z,80.10
2023-09-26T04:35:13.328Z,80.10
2023-09-26T04:36:13.196Z,80.40
2023-09-26T04:37:13.216Z,80.70
2023-09-26T04:38:13.262Z,80.70
2023-09-26T04:39:13.275Z,80.90
2023-09-26T04:40:13.122Z,81.00
2023-09-26T04:41:12.950Z,80.90
2023-09-26T04:42:13.020Z,81.00
2023-09-26T04:43:13.032Z,81.10
2023-09-26T04:44:13.085Z,81.00
2023-09-26T04:45:12.904Z,80.90
2023-09-26T04:46:12.971Z,81.00
2023-09-26T04:47:13.081Z,80.90
2023-09-26T04:48:12.964Z,80.80
2023-09-26T04:49:12.971Z,80.60
2023-09-26T04:50:12.910Z,80.60
2023-09-26T04:51:12.935Z,80.60
2023-09-26T04:52:13.148Z,80.70
2023-09-26T04:53:13.260Z,80.70
2023-09-26T04:54:13.349Z,80.70
2023-09-26T04:55:13.323Z,80.90
2023-09-26T04:56:13.357Z,80.90
2023-09-26T04:57:13.057Z,81.10
2023-09-26T04:58:13.162Z,81.10
2023-09-26T04:59:13.265Z,81.20
2023-09-26T05:01:13.422Z,81.20
2023-09-26T05:02:13.348Z,81.30
2023-09-26T05:03:13.405Z,81.40
2023-09-26T05:04:13.374Z,81.60
2023-09-26T05:05:13.400Z,81.60
2023-09-26T05:06:13.452Z,81.40
2023-09-26T05:07:13.460Z,81.40
2023-09-26T05:08:13.475Z,81.30
2023-09-26T05:09:13.670Z,81.20
2023-09-26T05:10:13.938Z,81.20
2023-09-26T05:11:12.823Z,81.20
2023-09-26T05:12:13.695Z,81.50
2023-09-26T05:13:13.470Z,81.40
2023-09-26T05:14:13.367Z,81.40
2023-09-26T05:15:13.231Z,81.40
2023-09-26T05:16:13.468Z,81.70
2023-09-26T05:17:13.399Z,81.40
2023-09-26T05:18:13.458Z,81.20
2023-09-26T05:19:13.529Z,80.90
2023-09-26T05:20:13.596Z,80.60
2023-09-26T05:21:13.478Z,80.60
2023-09-26T05:22:13.362Z,80.60
2023-09-26T05:23:13.731Z,80.70
2023-09-26T05:24:13.736Z,80.80
2023-09-26T05:25:14.243Z,80.70
2023-09-26T05:26:13.242Z,80.90
2023-09-26T05:27:13.150Z,81.00
2023-09-26T05:28:13.293Z,81.20
2023-09-26T05:29:13.109Z,81.30
2023-09-26T05:30:13.383Z,81.30
2023-09-26T05:31:13.268Z,81.40
2023-09-26T05:32:13.791Z,81.20
2023-09-26T05:33:13.719Z,81.00
2023-09-26T05:34:13.499Z,80.80
2023-09-26T05:35:13.489Z,80.80
2023-09-26T05:36:13.595Z,80.80
2023-09-26T05:37:13.663Z,80.80
2023-09-26T05:38:13.969Z,81.00
2023-09-26T05:39:12.837Z,81.10
2023-09-26T05:40:13.714Z,81.30
2023-09-26T05:41:13.925Z,81.20
2023-09-26T05:42:12.867Z,81.30
2023-09-26T05:43:13.916Z,81.30
2023-09-26T05:44:12.944Z,81.40
2023-09-26T05:45:13.117Z,81.40
2023-09-26T05:46:13.320Z,81.40
2023-09-26T05:47:13.412Z,81.60
2023-09-26T05:48:13.411Z,81.70
2023-09-26T05:49:13.269Z,81.80
2023-09-26T05:50:13.257Z,82.00
2023-09-26T05:51:13.479Z,81.90
2023-09-26T05:52:13.557Z,82.00
2023-09-26T05:53:13.596Z,82.10
2023-09-26T05:54:29.455Z,82.10
2023-09-26T05:55:13.381Z,82.00
2023-09-26T05:56:13.525Z,82.20
2023-09-26T05:57:13.666Z,82.00
2023-09-26T05:58:13.611Z,81.70
2023-09-26T05:59:13.531Z,81.80
2023-09-26T06:00:13.870Z,81.80
2023-09-26T06:01:13.745Z,81.90
2023-09-26T06:02:16.511Z,82.00
2023-09-26T06:03:13.505Z,81.90
2023-09-26T06:04:13.447Z,81.70
2023-09-26T06:05:13.481Z,81.60
2023-09-26T06:06:13.409Z,81.40
2023-09-26T06:07:13.555Z,81.10
2023-09-26T06:08:13.725Z,80.80
2023-09-26T06:09:13.636Z,80.40
2023-09-26T06:10:13.698Z,80.10
2023-09-26T06:11:13.648Z,79.80
2023-09-26T06:12:13.657Z,79.40
2023-09-26T06:13:13.592Z,79.10
2023-09-26T06:14:13.827Z,78.90
2023-09-26T06:15:13.837Z,78.70
2023-09-26T06:17:13.406Z,78.40
2023-09-26T06:18:13.456Z,78.30
2023-09-26T06:19:13.388Z,78.20
2023-09-26T06:20:13.681Z,78.20
2023-09-26T06:21:13.570Z,78.20
2023-09-26T06:22:13.448Z,78.20
2023-09-26T06:23:13.403Z,78.20
2023-09-26T06:24:13.386Z,78.30
2023-09-26T06:25:13.266Z,78.30
2023-09-26T06:26:13.205Z,78.40
2023-09-26T06:27:13.035Z,78.50
2023-09-26T06:28:13.245Z,78.50
2023-09-26T06:29:13.441Z,78.70
2023-09-26T06:30:13.433Z,78.60
2023-09-26T06:31:13.393Z,78.70
2023-09-26T06:32:13.421Z,78.80
2023-09-26T06:33:13.908Z,78.70
2023-09-26T06:34:18.065Z,78.70
2023-09-26T06:35:13.079Z,78.50
2023-09-26T06:36:13.204Z,78.40
2023-09-26T06:37:13.033Z,78.20
2023-09-26T06:38:14.347Z,78.00
2023-09-26T06:39:13.520Z,77.90
2023-09-26T06:40:13.800Z,77.80
2023-09-26T06:41:14.021Z,77.90
2023-09-26T06:42:13.053Z,78.00
2023-09-26T06:43:12.886Z,78.00
2023-09-26T06:44:13.229Z,78.00
2023-09-26T06:45:13.372Z,77.90
2023-09-26T06:46:13.508Z,77.90
2023-09-26T06:47:13.772Z,77.70
2023-09-26T06:48:13.654Z,77.50
2023-09-26T06:49:13.599Z,77.20
2023-09-26T06:50:13.606Z,76.80
2023-09-26T06:51:13.601Z,76.60
2023-09-26T06:52:13.537Z,76.60
2023-09-26T06:53:13.426Z,76.40
2023-09-26T06:54:13.345Z,76.30
2023-09-26T06:55:13.538Z,76.40
2023-09-26T06:56:13.489Z,76.30
2023-09-26T06:57:13.697Z,76.20
2023-09-26T06:58:13.629Z,75.90
2023-09-26T06:59:13.390Z,75.90
2023-09-26T07:00:13.635Z,75.70
2023-09-26T07:01:13.644Z,75.70
2023-09-26T07:02:13.614Z,75.40
2023-09-26T07:03:13.400Z,75.20
2023-09-26T07:04:13.346Z,75.00
2023-09-26T07:05:13.532Z,75.30
2023-09-26T07:06:13.734Z,75.40
2023-09-26T07:07:13.974Z,75.30
2023-09-26T07:08:12.823Z,75.20
2023-09-26T07:09:13.776Z,75.10
2023-09-26T07:10:12.695Z,75.20
2023-09-26T07:11:14.001Z,75.00
2023-09-26T07:12:13.261Z,74.80
2023-09-26T07:13:31.264Z,74.30
2023-09-26T07:14:13.779Z,74.10
2023-09-26T07:15:13.177Z,73.70
2023-09-26T07:16:13.068Z,73.40
2023-09-26T07:17:13.447Z,73.50
2023-09-26T07:18:13.444Z,73.50
2023-09-26T07:19:13.388Z,73.20
2023-09-26T07:20:13.499Z,73.40
2023-09-26T07:21:13.652Z,73.20
2023-09-26T07:22:13.769Z,73.20
2023-09-26T07:23:14.162Z,72.50
2023-09-26T07:24:13.140Z,72.50
2023-09-26T07:25:13.289Z,72.60
2023-09-26T07:26:15.185Z,72.50
2023-09-26T07:27:13.196Z,72.40
2023-09-26T07:28:13.153Z,72.30
2023-09-26T07:29:13.277Z,71.80
2023-09-26T07:30:13.108Z,72.00
2023-09-26T07:31:13.353Z,71.90
2023-09-26T07:32:13.376Z,71.80
2023-09-26T07:33:13.456Z,72.10
2023-09-26T07:34:13.334Z,71.20
2023-09-26T07:35:13.469Z,70.80
2023-09-26T07:36:13.375Z,70.80
2023-09-26T07:37:13.493Z,70.80
2023-09-26T07:38:13.638Z,71.10
2023-09-26T07:39:13.626Z,71.10
2023-09-26T07:40:14.043Z,71.20
2023-09-26T07:41:13.093Z,71.50
2023-09-26T07:42:12.944Z,71.50
2023-09-26T07:43:13.132Z,71.10
2023-09-26T07:44:13.396Z,70.50
2023-09-26T07:45:13.410Z,68.80
2023-09-26T07:46:13.410Z,69.30
2023-09-26T07:47:13.521Z,69.00
2023-09-26T07:48:13.333Z,68.00
2023-09-26T07:49:18.403Z,68.90
2023-09-26T07:50:13.396Z,68.50
2023-09-26T07:51:15.658Z,68.40
2023-09-26T07:52:13.229Z,67.40
2023-09-26T07:53:13.234Z,66.80
2023-09-26T07:54:13.328Z,66.50
2023-09-26T07:55:13.340Z,66.60
2023-09-26T07:56:13.564Z,67.10
2023-09-26T07:57:13.406Z,66.00
2023-09-26T07:58:13.313Z,65.80
2023-09-26T07:59:13.303Z,65.80
2023-09-26T08:00:13.286Z,65.70
2023-09-26T08:01:13.290Z,65.20
2023-09-26T08:02:13.474Z,64.70
2023-09-26T08:03:13.474Z,64.60
2023-09-26T08:04:13.542Z,65.10
2023-09-26T08:05:13.492Z,64.70
2023-09-26T08:06:13.665Z,65.30
2023-09-26T08:07:13.569Z,65.60
2023-09-26T08:08:13.701Z,64.70
2023-09-26T08:09:13.520Z,63.30
2023-09-26T08:10:13.573Z,64.10
2023-09-26T08:11:13.676Z,63.30
2023-09-26T08:12:13.705Z,63.00
2023-09-26T08:13:13.760Z,63.30
2023-09-26T08:14:13.641Z,63.10
2023-09-26T08:15:13.758Z,63.10
2023-09-26T08:16:13.735Z,63.40
2023-09-26T08:17:13.926Z,63.20
2023-09-26T08:18:12.758Z,63.10
2023-09-26T08:19:14.059Z,63.90
2023-09-26T08:20:13.961Z,63.60
2023-09-26T08:21:13.331Z,63.80
2023-09-26T08:22:13.534Z,63.20
2023-09-26T08:23:13.507Z,63.50
2023-09-26T08:24:13.499Z,63.20
2023-09-26T08:25:13.435Z,63.10
2023-09-26T08:26:13.377Z,62.20
2023-09-26T08:27:13.340Z,62.00
2023-09-26T08:28:13.319Z,61.60
2023-09-26T08:29:13.163Z,61.80
2023-09-26T08:30:13.078Z,62.20
2023-09-26T08:31:13.427Z,61.90
2023-09-26T08:32:13.728Z,62.30
2023-09-26T08:33:14.097Z,62.40
2023-09-26T08:34:13.152Z,62.50
2023-09-26T08:35:12.995Z,62.00
2023-09-26T08:36:13.222Z,61.90
2023-09-26T08:37:13.277Z,62.50
2023-09-26T08:38:13.376Z,62.60
2023-09-26T08:39:13.639Z,62.90
2023-09-26T08:40:13.655Z,62.40
2023-09-26T08:41:13.563Z,62.50
2023-09-26T08:42:13.662Z,62.50
2023-09-26T08:43:13.615Z,62.00
2023-09-26T08:44:13.538Z,62.00
2023-09-26T08:45:13.667Z,62.20
2023-09-26T08:46:13.716Z,61.40
2023-09-26T08:47:13.137Z,61.00
2023-09-26T08:48:13.405Z,61.40
2023-09-26T08:49:13.496Z,61.70
2023-09-26T08:50:13.611Z,60.50
2023-09-26T08:51:13.524Z,59.10
2023-09-26T08:52:13.535Z,58.90
2023-09-26T08:53:13.690Z,59.70
2023-09-26T08:54:13.591Z,60.10
2023-09-26T08:55:13.838Z,57.10
2023-09-26T08:56:13.865Z,56.40
2023-09-26T08:57:13.685Z,57.00
2023-09-26T08:58:13.707Z,57.40
2023-09-26T08:59:13.745Z,58.40
2023-09-26T09:00:13.835Z,57.40
2023-09-26T09:01:13.712Z,59.00
2023-09-26T09:02:13.657Z,57.50
2023-09-26T09:03:13.935Z,57.60
2023-09-26T09:04:12.901Z,57.50
2023-09-26T09:05:13.079Z,59.10
2023-09-26T09:06:13.223Z,57.30
2023-09-26T09:07:13.131Z,57.50
2023-09-26T09:08:13.113Z,57.40
2023-09-26T09:09:13.004Z,56.50
2023-09-26T09:10:13.400Z,56.60
2023-09-26T09:11:13.499Z,56.40
2023-09-26T09:12:13.429Z,56.50
2023-09-26T09:13:13.237Z,57.40
2023-09-26T09:14:13.121Z,57.90
2023-09-26T09:15:13.290Z,57.10
2023-09-26T09:16:13.664Z,56.90
2023-09-26T09:17:14.055Z,55.80
2023-09-26T09:18:13.426Z,55.50
2023-09-26T09:19:13.462Z,55.60
2023-09-26T09:20:13.392Z,55.90
2023-09-26T09:21:13.582Z,55.50
2023-09-26T09:22:13.805Z,56.10
2023-09-26T09:23:13.875Z,56.00
2023-09-26T09:24:14.025Z,56.80
2023-09-26T09:25:13.416Z,55.60
2023-09-26T09:26:13.200Z,55.40
2023-09-26T09:27:13.377Z,55.70
2023-09-26T09:28:13.274Z,55.20
2023-09-26T09:29:13.345Z,53.10
2023-09-26T09:30:13.444Z,53.60
2023-09-26T09:31:18.831Z,52.60
2023-09-26T09:32:13.954Z,51.90
2023-09-26T09:33:13.179Z,52.60
2023-09-26T09:34:13.584Z,52.40
2023-09-26T09:35:13.782Z,51.10
2023-09-26T09:36:14.002Z,55.10
2023-09-26T09:37:13.170Z,51.80
2023-09-26T09:38:13.287Z,52.00
2023-09-26T09:39:13.364Z,51.90
2023-09-26T09:40:13.532Z,52.40
2023-09-26T09:41:13.601Z,51.10
2023-09-26T09:42:13.451Z,51.40
2023-09-26T09:43:13.347Z,50.90
2023-09-26T09:44:13.601Z,51.30
2023-09-26T09:45:13.827Z,51.10
2023-09-26T09:46:14.155Z,50.80
2023-09-26T09:47:13.347Z,50.90
2023-09-26T09:48:13.458Z,51.70
2023-09-26T09:49:13.917Z,52.30
2023-09-26T09:50:13.431Z,52.20
2023-09-26T09:51:13.699Z,50.60
2023-09-26T09:52:13.589Z,50.60
2023-09-26T09:53:13.445Z,51.70
2023-09-26T09:54:13.730Z,51.60
2023-09-26T09:55:13.806Z,52.40
2023-09-26T09:56:13.743Z,50.70
2023-09-26T09:57:14.078Z,52.10
2023-09-26T09:58:13.148Z,48.10
2023-09-26T09:59:13.142Z,48.20
2023-09-26T10:00:13.222Z,45.50
2023-09-26T10:01:13.509Z,45.50
2023-09-26T10:02:13.636Z,45.90
2023-09-26T10:03:13.484Z,44.20
2023-09-26T10:04:13.568Z,43.80
2023-09-26T10:05:13.744Z,42.80
2023-09-26T10:06:13.749Z,42.40
2023-09-26T10:07:13.641Z,40.20
2023-09-26T10:08:14.002Z,40.60
2023-09-26T10:09:12.984Z,40.70
2023-09-26T10:10:13.095Z,41.10
2023-09-26T10:11:13.282Z,40.60
2023-09-26T10:12:13.318Z,40.40
2023-09-26T10:13:34.955Z,40.80
2023-09-26T10:14:13.117Z,40.00
2023-09-26T10:15:13.186Z,40.20
2023-09-26T10:16:16.082Z,40.50
2023-09-26T10:17:14.211Z,39.20
2023-09-26T10:18:13.428Z,39.60
2023-09-26T10:19:13.446Z,39.50
2023-09-26T10:20:39.977Z,39.90
2023-09-26T10:21:13.449Z,39.80
2023-09-26T10:22:13.636Z,40.30
2023-09-26T10:23:13.470Z,39.10
2023-09-26T10:24:13.260Z,39.30
2023-09-26T10:25:13.079Z,39.00
2023-09-26T10:26:13.058Z,39.10
2023-09-26T10:27:26.781Z,39.00
2023-09-26T10:28:13.430Z,38.20
2023-09-26T10:29:13.430Z,38.90
2023-09-26T10:30:13.385Z,39.00
2023-09-26T10:31:13.806Z,39.50
2023-09-26T10:32:14.032Z,39.90
2023-09-26T10:33:27.905Z,39.50
2023-09-26T10:34:13.431Z,39.10
2023-09-26T10:35:15.147Z,38.40
2023-09-26T10:36:13.789Z,38.60
2023-09-26T10:37:13.922Z,39.40
2023-09-26T10:38:13.173Z,38.00
2023-09-26T10:39:13.322Z,39.40
2023-09-26T10:40:13.244Z,37.90
2023-09-26T10:41:13.189Z,38.10
2023-09-26T10:42:35.967Z,38.90
2023-09-26T10:44:13.588Z,35.40
2023-09-26T10:45:13.790Z,35.10
2023-09-26T10:46:18.924Z,36.30
2023-09-26T10:47:13.061Z,37.20
2023-09-26T10:48:17.052Z,36.00
2023-09-26T10:49:13.699Z,36.30
2023-09-26T10:50:13.798Z,36.50
2023-09-26T10:51:13.994Z,36.50
2023-09-26T10:52:12.854Z,37.10
2023-09-26T10:53:12.894Z,35.80
2023-09-26T10:54:12.923Z,35.90
2023-09-26T10:55:12.958Z,35.40
2023-09-26T10:56:12.989Z,34.40
2023-09-26T10:57:12.722Z,34.60
2023-09-26T10:58:13.747Z,33.40
2023-09-26T10:59:13.666Z,35.00
2023-09-26T11:00:13.807Z,33.20
2023-09-26T11:01:13.834Z,33.80
2023-09-26T11:02:12.926Z,33.90
2023-09-26T11:03:13.128Z,34.60
2023-09-26T11:04:13.446Z,34.50
2023-09-26T11:05:13.978Z,34.30
2023-09-26T11:06:14.081Z,33.30
2023-09-26T11:07:13.396Z,33.50
2023-09-26T11:09:14.486Z,31.00
2023-09-26T11:10:13.649Z,32.10
2023-09-26T11:11:13.587Z,32.40
2023-09-26T11:12:13.766Z,34.20
2023-09-26T11:13:13.572Z,31.70
2023-09-26T11:14:13.573Z,32.00
2023-09-26T11:15:13.783Z,30.00
2023-09-26T11:16:13.568Z,30.50
2023-09-26T11:17:13.421Z,31.60
2023-09-26T11:18:13.612Z,32.00
2023-09-26T11:19:13.617Z,30.80
2023-09-26T11:20:13.635Z,31.20
2023-09-26T11:21:26.815Z,30.90
2023-09-26T11:22:13.388Z,31.20
2023-09-26T11:23:13.081Z,29.90
2023-09-26T11:24:13.143Z,31.10
2023-09-26T11:25:13.324Z,31.30
2023-09-26T11:26:13.324Z,33.70
2023-09-26T11:27:13.161Z,29.80
2023-09-26T11:28:13.095Z,29.30
2023-09-26T11:29:13.115Z,31.00
2023-09-26T11:30:14.366Z,30.90
2023-09-26T11:31:13.493Z,31.20
2023-09-26T11:32:14.771Z,31.00
2023-09-26T11:33:13.012Z,31.20
2023-09-26T11:34:12.792Z,28.40
2023-09-26T11:35:13.928Z,28.60
2023-09-26T11:36:12.945Z,29.40
2023-09-26T11:37:13.282Z,29.80
2023-09-26T11:38:13.296Z,29.30
2023-09-26T11:39:13.150Z,29.60
2023-09-26T11:40:13.116Z,29.70
2023-09-26T11:41:13.085Z,31.20
2023-09-26T11:42:13.593Z,31.90
2023-09-26T11:43:13.703Z,33.10
2023-09-26T11:44:13.790Z,34.10
2023-09-26T11:45:13.959Z,33.60
2023-09-26T11:46:13.012Z,33.80
2023-09-26T11:47:13.209Z,33.70
2023-09-26T11:48:13.196Z,33.20
2023-09-26T11:49:13.073Z,32.60
2023-09-26T11:50:13.015Z,31.40
2023-09-26T11:51:12.857Z,31.40
2023-09-26T11:52:14.070Z,30.80
2023-09-26T11:53:13.183Z,31.20
2023-09-26T11:54:13.075Z,30.40
2023-09-26T11:55:13.237Z,29.80
2023-09-26T11:56:13.263Z,28.80
2023-09-26T11:57:13.162Z,29.10
2023-09-26T11:58:13.072Z,29.50
2023-09-26T11:59:13.131Z,29.70
2023-09-26T12:00:13.041Z,27.90
2023-09-26T12:01:13.056Z,29.50
2023-09-26T12:02:13.390Z,29.50
2023-09-26T12:03:13.617Z,31.00
2023-09-26T12:04:13.944Z,29.80
2023-09-26T12:05:13.165Z,30.20
2023-09-26T12:06:13.174Z,29.80
2023-09-26T12:07:13.157Z,30.30
2023-09-26T12:08:13.176Z,30.00
2023-09-26T12:09:13.314Z,29.60
2023-09-26T12:10:13.316Z,30.20
2023-09-26T12:11:13.197Z,29.60
2023-09-26T12:12:13.320Z,28.90
2023-09-26T12:13:13.321Z,28.60
2023-09-26T12:14:13.325Z,29.20
2023-09-26T12:15:13.485Z,28.90
2023-09-26T12:16:13.384Z,27.60
2023-09-26T12:17:14.847Z,27.80
2023-09-26T12:18:13.023Z,28.30
2023-09-26T12:19:13.055Z,29.00
2023-09-26T12:20:13.758Z,28.00
2023-09-26T12:21:13.740Z,27.50
2023-09-26T12:22:13.963Z,28.50
2023-09-26T12:23:12.938Z,27.30
2023-09-26T12:24:12.942Z,27.60
2023-09-26T12:25:12.921Z,27.00
2023-09-26T12:26:13.022Z,28.90
2023-09-26T12:27:12.980Z,28.20
2023-09-26T12:28:13.049Z,28.60
2023-09-26T12:29:13.278Z,30.00
2023-09-26T12:30:13.257Z,28.90
2023-09-26T12:31:13.218Z,29.80
2023-09-26T12:32:13.145Z,29.80
2023-09-26T12:33:13.218Z,30.50
2023-09-26T12:34:13.674Z,31.30
2023-09-26T12:35:13.702Z,30.20
2023-09-26T12:36:13.694Z,30.50
2023-09-26T12:37:13.667Z,32.10
2023-09-26T12:38:13.806Z,33.20
2023-09-26T12:39:13.743Z,33.80
2023-09-26T12:40:13.701Z,33.90
2023-09-26T12:41:13.532Z,34.60
2023-09-26T12:42:13.524Z,34.40
2023-09-26T12:43:13.554Z,33.70
2023-09-26T12:44:13.748Z,33.90
2023-09-26T12:45:13.845Z,33.80
2023-09-26T12:46:13.744Z,32.80
2023-09-26T12:47:13.815Z,32.60
2023-09-26T12:48:14.387Z,32.60
2023-09-26T12:49:13.261Z,32.10
2023-09-26T12:50:13.309Z,33.80
2023-09-26T12:51:13.196Z,34.70
2023-09-26T12:52:13.204Z,34.00
2023-09-26T12:53:13.183Z,33.70
2023-09-26T12:54:13.197Z,33.10
2023-09-26T12:55:13.423Z,33.50